createdAt,value
2018-06-14T00:01:18.921Z,3.27
2018-06-14T00:03:47.089Z,4.95
2018-06-14T00:06:28.286Z,3.95
2018-06-14T00:09:11.552Z,4.05
2018-06-14T00:11:39.824Z,4.17
2018-06-14T00:14:20.857Z,4.42
2018-06-14T00:16:49.269Z,3.95
2018-06-14T00:19:30.310Z,4.22
2018-06-14T00:22:11.491Z,3.50
2018-06-14T00:24:52.330Z,3.75
2018-06-14T00:27:21.047Z,5.92
2018-06-14T00:29:55.539Z,6.67
2018-06-14T00:32:36.557Z,6.45
2018-06-14T00:35:04.987Z,4.72
2018-06-14T00:37:33.605Z,4.17
2018-06-14T00:40:14.653Z,7.60
2018-06-14T00:42:43.513Z,5.83
2018-06-14T00:45:11.953Z,5.60
2018-06-14T00:47:53.251Z,4.90
2018-06-14T00:50:21.589Z,4.95
2018-06-14T00:52:49.780Z,5.20
2018-06-14T00:55:30.596Z,3.65
2018-06-14T00:58:05.909Z,4.60
2018-06-14T01:00:34.186Z,5.10
2018-06-14T01:03:02.799Z,2.98
2018-06-14T01:05:43.722Z,4.65
2018-06-14T01:08:24.615Z,3.35
2018-06-14T01:10:53.145Z,5.20
2018-06-14T01:13:22.032Z,3.42
2018-06-14T01:16:02.325Z,4.05
2018-06-14T01:18:43.105Z,3.17
2018-06-14T01:21:23.928Z,4.72
2018-06-14T01:24:04.692Z,3.20
2018-06-14T01:26:45.632Z,4.22
2018-06-14T01:29:15.271Z,2.75
2018-06-14T01:31:56.161Z,3.58
2018-06-14T01:34:36.672Z,4.05
2018-06-14T01:37:17.409Z,5.45
2018-06-14T01:39:58.067Z,4.40
2018-06-14T01:42:38.733Z,4.78
2018-06-14T01:45:19.693Z,3.85
2018-06-14T01:48:00.410Z,3.58
2018-06-14T01:50:41.044Z,2.58
2018-06-14T01:53:09.604Z,3.10
2018-06-14T01:55:50.906Z,4.05
2018-06-14T01:58:31.658Z,4.87
2018-06-14T02:01:12.225Z,3.20
2018-06-14T02:03:52.990Z,2.98
2018-06-14T02:06:33.716Z,4.42
2018-06-14T02:09:02.114Z,2.27
2018-06-14T02:11:30.683Z,5.12
2018-06-14T02:14:11.160Z,2.92
2018-06-14T02:16:51.990Z,3.35
2018-06-14T02:19:20.310Z,4.70
2018-06-14T02:21:49.316Z,3.57
2018-06-14T02:24:30.199Z,2.67
2018-06-14T02:27:11.082Z,4.03
2018-06-14T02:29:39.511Z,4.58
2018-06-14T02:32:19.828Z,5.12
2018-06-14T02:35:00.471Z,2.60
2018-06-14T02:37:42.148Z,3.60
2018-06-14T02:40:12.387Z,2.83
2018-06-14T02:42:42.181Z,4.12
2018-06-14T02:45:22.606Z,4.00
2018-06-14T02:48:03.415Z,3.05
2018-06-14T02:50:44.197Z,3.33
2018-06-14T02:53:24.865Z,4.10
2018-06-14T02:55:53.675Z,4.25
2018-06-14T02:58:34.435Z,5.73
2018-06-14T03:01:04.044Z,3.25
2018-06-14T03:03:34.228Z,3.10
2018-06-14T03:06:14.755Z,2.60
2018-06-14T03:08:43.192Z,2.90
2018-06-14T03:11:11.405Z,3.98
2018-06-14T03:13:39.441Z,3.83
2018-06-14T03:16:07.760Z,4.90
2018-06-14T03:18:48.355Z,6.60
2018-06-14T03:21:29.389Z,3.20
2018-06-14T03:24:09.765Z,4.30
2018-06-14T03:26:50.925Z,2.50
2018-06-14T03:29:19.376Z,3.90
2018-06-14T03:32:00.211Z,3.10
2018-06-14T03:34:28.552Z,4.58
2018-06-14T03:37:10.121Z,3.22
2018-06-14T03:39:38.449Z,3.77
2018-06-14T03:42:19.329Z,2.80
2018-06-14T03:44:47.732Z,4.00
2018-06-14T03:47:28.928Z,2.52
2018-06-14T03:50:09.537Z,3.25
2018-06-14T03:52:37.773Z,3.20
2018-06-14T03:55:18.149Z,3.83
2018-06-14T03:57:46.476Z,3.40
2018-06-14T04:00:26.935Z,3.25
2018-06-14T04:03:07.799Z,2.77
2018-06-14T04:05:48.602Z,5.40
2018-06-14T04:08:29.546Z,5.42
2018-06-14T04:10:57.729Z,5.22
2018-06-14T04:13:38.104Z,2.87
2018-06-14T04:16:18.954Z,4.03
2018-06-14T04:18:47.357Z,3.67
2018-06-14T04:21:27.749Z,5.20
2018-06-14T04:24:08.531Z,5.10
2018-06-14T04:26:49.233Z,4.53
2018-06-14T04:29:30.102Z,4.83
2018-06-14T04:32:10.896Z,5.00
2018-06-14T04:34:51.791Z,4.50
2018-06-14T04:37:32.332Z,3.40
2018-06-14T04:40:13.186Z,3.22
2018-06-14T04:42:53.940Z,3.52
2018-06-14T04:45:34.477Z,5.30
2018-06-14T04:48:15.277Z,5.63
2018-06-14T04:50:56.055Z,4.72
2018-06-14T04:53:24.479Z,4.62
2018-06-14T04:55:52.991Z,8.33
2018-06-14T04:58:33.534Z,5.17
2018-06-14T05:01:01.997Z,4.95
2018-06-14T05:03:30.315Z,5.03
2018-06-14T05:06:10.878Z,5.90
2018-06-14T05:08:51.536Z,4.08
2018-06-14T05:11:32.313Z,5.15
2018-06-14T05:14:13.312Z,4.75
2018-06-14T05:16:54.025Z,5.55
2018-06-14T05:19:22.244Z,4.85
2018-06-14T05:22:02.619Z,5.40
2018-06-14T05:24:43.507Z,7.55
2018-06-14T05:27:17.041Z,8.13
2018-06-14T05:29:57.885Z,5.97
2018-06-14T05:32:38.541Z,7.97
2018-06-14T05:35:19.163Z,6.37
2018-06-14T05:37:47.558Z,6.12
2018-06-14T05:40:27.741Z,5.40
2018-06-14T05:43:03.945Z,5.45
2018-06-14T05:45:32.206Z,8.98
2018-06-14T05:48:13.904Z,8.25
2018-06-14T05:50:54.790Z,6.67
2018-06-14T05:53:23.033Z,10.35
2018-06-14T05:55:51.856Z,6.90
2018-06-14T05:58:20.126Z,5.87
2018-06-14T06:00:48.336Z,6.42
2018-06-14T06:03:28.588Z,10.35
2018-06-14T06:05:59.912Z,9.65
2018-06-14T06:08:41.023Z,7.30
2018-06-14T06:11:09.314Z,5.22
2018-06-14T06:13:49.576Z,6.97
2018-06-14T06:16:17.785Z,8.90
2018-06-14T06:18:46.080Z,10.30
2018-06-14T06:21:14.680Z,6.58
2018-06-14T06:23:42.990Z,7.17
2018-06-14T06:26:23.803Z,6.58
2018-06-14T06:29:04.510Z,7.80
2018-06-14T06:31:32.738Z,8.75
2018-06-14T06:34:01.729Z,6.25
2018-06-14T06:36:42.833Z,7.53
2018-06-14T06:39:23.494Z,10.38
2018-06-14T06:41:58.237Z,7.80
2018-06-14T06:44:26.423Z,7.72
2018-06-14T06:47:06.707Z,7.65
2018-06-14T06:49:47.398Z,7.62
2018-06-14T06:52:17.241Z,9.15
2018-06-14T06:54:47.145Z,5.80
2018-06-14T06:57:16.654Z,6.25
2018-06-14T06:59:44.974Z,7.22
2018-06-14T07:02:13.244Z,6.55
2018-06-14T07:04:41.504Z,6.58
2018-06-14T07:07:22.410Z,6.92
2018-06-14T07:10:03.054Z,5.30
2018-06-14T07:12:43.776Z,6.28
2018-06-14T07:15:12.037Z,5.72
2018-06-14T07:17:52.257Z,6.03
2018-06-14T07:20:20.595Z,6.80
2018-06-14T07:23:00.930Z,6.62
2018-06-14T07:25:41.681Z,6.15
2018-06-14T07:28:22.461Z,6.95
2018-06-14T07:30:50.669Z,6.30
2018-06-14T07:33:18.896Z,5.60
2018-06-14T07:35:47.231Z,8.15
2018-06-14T07:38:15.684Z,5.37
2018-06-14T07:40:43.949Z,6.60
2018-06-14T07:43:24.935Z,6.30
2018-06-14T07:45:53.260Z,5.10
2018-06-14T07:48:21.546Z,5.37
2018-06-14T07:51:02.366Z,5.47
2018-06-14T07:53:43.127Z,6.10
2018-06-14T07:56:11.360Z,5.00
2018-06-14T07:58:51.644Z,4.20
2018-06-14T08:01:32.285Z,4.00
2018-06-14T08:04:12.864Z,6.47
2018-06-14T08:06:41.038Z,5.17
2018-06-14T08:09:10.369Z,4.80
2018-06-14T08:11:44.668Z,5.20
2018-06-14T08:14:13.034Z,4.05
2018-06-14T08:16:41.453Z,5.12
2018-06-14T08:19:09.655Z,7.37
2018-06-14T08:21:38.000Z,6.03
2018-06-14T08:24:06.246Z,3.20
2018-06-14T08:26:38.443Z,4.47
2018-06-14T08:29:06.706Z,5.80
2018-06-14T08:31:34.953Z,5.83
2018-06-14T08:34:09.125Z,3.75
2018-06-14T08:36:43.869Z,5.10
2018-06-14T08:39:12.290Z,3.40
2018-06-14T08:41:40.516Z,4.20
2018-06-14T08:44:20.805Z,4.10
2018-06-14T08:47:01.434Z,7.87
2018-06-14T08:49:42.104Z,4.10
2018-06-14T08:52:23.004Z,4.80
2018-06-14T08:54:52.603Z,5.20
2018-06-14T08:57:27.987Z,4.67
2018-06-14T08:59:57.243Z,5.03
2018-06-14T09:02:31.193Z,2.92
2018-06-14T09:05:01.328Z,3.90
2018-06-14T09:07:29.664Z,3.45
2018-06-14T09:10:10.593Z,3.05
2018-06-14T09:12:46.774Z,6.35
2018-06-14T09:15:15.075Z,3.80
2018-06-14T09:17:55.669Z,3.12
2018-06-14T09:20:25.261Z,5.20
2018-06-14T09:23:05.404Z,5.78
2018-06-14T09:25:46.117Z,4.87
2018-06-14T09:28:26.914Z,3.70
2018-06-14T09:30:59.314Z,3.90
